Time;durP1;ratioP1;P1;durP2;ratioP2;P2;SDS_P1;SDS_P2;PMS_P1;PMS_P2;Temp;Humidity;BMP_temperature;BMP_pressure;BME280_temperature;BME280_humidity;BME280_pressure;Samples;Min_cycle;Max_cycle;Signal;HPM_P1;HPM_P2
2023/01/31 00:01:11;;;;;;;1.13;0.73;;;;;;;;;;5069332;28;20024;-60
2023/01/31 00:03:38;;;;;;;2.15;1.15;;;;;;;;;;5073446;28;20025;-60
2023/01/31 00:06:17;;;;;;;1.67;1.10;;;;;;;;;;5075024;28;20031;-60
2023/01/31 00:08:44;;;;;;;3.10;1.27;;;;;;;;;;5071322;28;20063;-60
2023/01/31 00:11:11;;;;;;;1.38;0.75;;;;;;;;;;5075069;28;20029;-60
2023/01/31 00:13:38;;;;;;;8.82;1.45;;;;;;;;;;5074972;28;20027;-60
2023/01/31 00:16:05;;;;;;;2.33;1.02;;;;;;;;;;5072386;28;20085;-60
2023/01/31 00:18:32;;;;;;;2.83;1.25;;;;;;;;;;5066083;28;20040;-60
2023/01/31 00:20:58;;;;;;;15.32;0.82;;;;;;;;;;5050003;28;20045;-60
2023/01/31 00:23:25;;;;;;;2.90;1.40;;;;;;;;;;5050100;28;20021;-59
2023/01/31 00:25:52;;;;;;;2.57;1.20;;;;;;;;;;5049484;28;20384;-60
2023/01/31 00:28:18;;;;;;;16.57;2.07;;;;;;;;;;5052981;28;20021;-60
2023/01/31 00:30:45;;;;;;;4.30;1.57;;;;;;;;;;5064274;28;20025;-60
2023/01/31 00:33:12;;;;;;;1.88;1.15;;;;;;;;;;5074834;28;20107;-60
2023/01/31 00:35:40;;;;;;;3.30;1.38;;;;;;;;;;5074894;28;20031;-60
2023/01/31 00:38:06;;;;;;;2.50;1.43;;;;;;;;;;5074356;28;20029;-60
2023/01/31 00:40:33;;;;;;;2.10;1.33;;;;;;;;;;5064718;28;20044;-60
2023/01/31 00:43:00;;;;;;;1.70;1.20;;;;;;;;;;5049315;28;20036;-60
2023/01/31 00:45:26;;;;;;;15.17;1.73;;;;;;;;;;5049776;28;20448;-61
2023/01/31 00:47:53;;;;;;;3.40;1.33;;;;;;;;;;5049539;28;20029;-60
2023/01/31 00:50:20;;;;;;;1.83;1.23;;;;;;;;;;5054461;28;20082;-60
2023/01/31 00:52:46;;;;;;;4.90;1.30;;;;;;;;;;5054623;28;20052;-60
2023/01/31 00:55:13;;;;;;;2.50;1.47;;;;;;;;;;5054147;28;20017;-61
2023/01/31 00:57:40;;;;;;;2.33;1.30;;;;;;;;;;5054304;28;20027;-60
2023/01/31 01:00:07;;;;;;;2.57;1.13;;;;;;;;;;5055480;28;20060;-60
2023/01/31 01:02:34;;;;;;;2.20;1.07;;;;;;;;;;5073994;28;20518;-60
2023/01/31 01:05:00;;;;;;;3.40;1.23;;;;;;;;;;5072557;28;20052;-60
2023/01/31 01:07:27;;;;;;;4.10;1.80;;;;;;;;;;5069103;28;20036;-60
2023/01/31 01:09:55;;;;;;;2.07;1.43;;;;;;;;;;5068822;28;20025;-60
2023/01/31 01:12:21;;;;;;;1.03;0.77;;;;;;;;;;5068377;28;20024;-60
2023/01/31 01:14:48;;;;;;;3.60;1.07;;;;;;;;;;5069002;28;20422;-60
2023/01/31 01:17:15;;;;;;;1.57;1.10;;;;;;;;;;5070417;28;20059;-60
2023/01/31 01:19:41;;;;;;;3.50;1.63;;;;;;;;;;5073850;28;20023;-60
2023/01/31 01:22:08;;;;;;;6.10;1.43;;;;;;;;;;5055204;28;20025;-60
2023/01/31 01:24:35;;;;;;;1.37;1.03;;;;;;;;;;5053811;28;20021;-60
2023/01/31 01:27:03;;;;;;;0.97;0.70;;;;;;;;;;5053730;28;20415;-60
2023/01/31 01:29:30;;;;;;;3.10;1.10;;;;;;;;;;5052407;28;20067;-60
2023/01/31 01:31:57;;;;;;;5.63;2.57;;;;;;;;;;5048721;28;20025;-61
2023/01/31 01:34:23;;;;;;;2.90;1.57;;;;;;;;;;5048357;28;20052;-60
2023/01/31 01:36:50;;;;;;;3.53;1.87;;;;;;;;;;5048907;28;20104;-60
2023/01/31 01:39:19;;;;;;;6.97;1.70;;;;;;;;;;5048696;28;20021;-60
2023/01/31 01:41:46;;;;;;;9.03;1.83;;;;;;;;;;5063905;28;20025;-60
2023/01/31 01:44:31;;;;;;;3.07;1.70;;;;;;;;;;5073349;28;20027;-60
2023/01/31 01:46:59;;;;;;;2.85;1.15;;;;;;;;;;5072785;28;20040;-60
2023/01/31 01:49:35;;;;;;;3.50;1.43;;;;;;;;;;5072763;28;20040;-60
2023/01/31 01:52:03;;;;;;;2.87;1.37;;;;;;;;;;5072961;28;20031;-60
2023/01/31 01:54:50;;;;;;;3.60;1.80;;;;;;;;;;5071283;28;20028;-60
2023/01/31 01:57:18;;;;;;;2.67;1.27;;;;;;;;;;5061505;28;20029;-60
2023/01/31 01:59:52;;;;;;;2.97;1.67;;;;;;;;;;5056282;28;20029;-60
2023/01/31 02:02:18;;;;;;;14.90;1.67;;;;;;;;;;5058566;28;20021;-59
2023/01/31 02:04:47;;;;;;;6.00;1.63;;;;;;;;;;5047799;28;20044;-60
2023/01/31 02:07:13;;;;;;;1.43;1.07;;;;;;;;;;5061865;28;20468;-59
2023/01/31 02:09:58;;;;;;;2.00;1.00;;;;;;;;;;5052930;28;20033;-60
2023/01/31 02:12:25;;;;;;;1.70;1.15;;;;;;;;;;5054788;28;20387;-60
2023/01/31 02:14:52;;;;;;;6.57;1.00;;;;;;;;;;5070294;28;20104;-59
2023/01/31 02:17:19;;;;;;;1.97;1.37;;;;;;;;;;5069802;28;20379;-60
2023/01/31 02:19:52;;;;;;;1.97;1.43;;;;;;;;;;5067372;28;20020;-60
2023/01/31 02:22:22;;;;;;;5.80;1.53;;;;;;;;;;5066610;28;20024;-60
2023/01/31 02:25:07;;;;;;;3.10;1.20;;;;;;;;;;5031859;28;20025;-60
2023/01/31 02:27:33;;;;;;;1.75;1.02;;;;;;;;;;5049671;28;20112;-60
2023/01/31 02:30:18;;;;;;;1.50;0.83;;;;;;;;;;5052475;28;20025;-60
2023/01/31 02:32:45;;;;;;;;;;;;;;;;;;5052947;28;20064;-60
2023/01/31 02:35:15;;;;;;;3.80;1.33;;;;;;;;;;5063846;28;19916;-59
2023/01/31 02:38:00;;;;;;;0.90;0.77;;;;;;;;;;5065157;28;20035;-60
2023/01/31 02:40:26;;;;;;;;;;;;;;;;;;5066499;28;20032;-60
2023/01/31 02:43:01;;;;;;;1.33;0.93;;;;;;;;;;5064919;28;19908;-60
2023/01/31 02:45:27;;;;;;;;;;;;;;;;;;5067229;28;20033;-60
2023/01/31 02:48:00;;;;;;;1.87;1.30;;;;;;;;;;5066648;28;20003;-60
2023/01/31 02:50:30;;;;;;;6.97;1.03;;;;;;;;;;5070128;28;20095;-60
2023/01/31 02:53:06;;;;;;;2.27;1.30;;;;;;;;;;5052139;28;20024;-59
2023/01/31 02:58:31;;;;;;;5.27;2.17;;;;;;;;;;5051983;28;20047;-60
2023/01/31 03:00:58;;;;;;;4.13;1.07;;;;;;;;;;5055255;28;20017;-60
2023/01/31 03:03:27;;;;;;;4.60;1.77;;;;;;;;;;5066376;28;20027;-60
2023/01/31 03:06:09;;;;;;;1.50;1.10;;;;;;;;;;5066546;28;20024;-59
2023/01/31 03:08:37;;;;;;;1.90;1.13;;;;;;;;;;5066285;28;20033;-60
2023/01/31 03:11:05;;;;;;;7.67;1.77;;;;;;;;;;5066815;28;20140;-60
2023/01/31 03:13:47;;;;;;;1.20;1.07;;;;;;;;;;5063211;28;20021;-60
2023/01/31 03:19:12;;;;;;;10.37;1.87;;;;;;;;;;5072287;28;20036;-60
2023/01/31 03:21:42;;;;;;;1.30;0.97;;;;;;;;;;5071787;28;20024;-60
2023/01/31 03:24:09;;;;;;;0.80;0.63;;;;;;;;;;5060809;28;20025;-60
2023/01/31 03:26:35;;;;;;;3.00;1.47;;;;;;;;;;5066433;28;20134;-60
2023/01/31 03:29:03;;;;;;;3.33;1.53;;;;;;;;;;5066293;28;20028;-59
2023/01/31 03:31:35;;;;;;;2.27;1.20;;;;;;;;;;5066147;28;20124;-60
2023/01/31 03:34:06;;;;;;;5.17;1.80;;;;;;;;;;5067958;28;20032;-59
2023/01/31 03:36:43;;;;;;;2.27;1.50;;;;;;;;;;5074998;28;20062;-59
2023/01/31 03:39:13;;;;;;;1.33;1.00;;;;;;;;;;5075737;28;20021;-59
2023/01/31 03:41:43;;;;;;;1.03;0.87;;;;;;;;;;5075872;28;20021;-59
2023/01/31 03:44:20;;;;;;;4.07;2.07;;;;;;;;;;5073778;28;20020;-60
2023/01/31 03:46:50;;;;;;;2.30;1.70;;;;;;;;;;5064803;28;20483;-61
2023/01/31 03:49:18;;;;;;;1.53;1.13;;;;;;;;;;5050037;28;20024;-59
2023/01/31 03:51:51;;;;;;;3.43;1.77;;;;;;;;;;5049932;28;20059;-61
2023/01/31 03:54:29;;;;;;;8.87;2.17;;;;;;;;;;5049934;28;20083;-59
2023/01/31 03:56:58;;;;;;;2.33;1.53;;;;;;;;;;5055092;28;20024;-59
2023/01/31 03:59:27;;;;;;;1.03;0.80;;;;;;;;;;5069987;28;20472;-59
2023/01/31 04:01:55;;;;;;;1.50;0.77;;;;;;;;;;5061541;28;20076;-58
2023/01/31 04:04:28;;;;;;;2.50;1.50;;;;;;;;;;5070038;28;20038;-58
2023/01/31 04:06:55;;;;;;;4.33;2.00;;;;;;;;;;5063083;28;20037;-61
2023/01/31 04:09:21;;;;;;;3.57;1.67;;;;;;;;;;5059920;28;20028;-59
2023/01/31 04:11:49;;;;;;;2.30;1.40;;;;;;;;;;5056485;28;20028;-58
2023/01/31 04:14:16;;;;;;;4.67;2.20;;;;;;;;;;5056904;28;20059;-60
2023/01/31 04:16:42;;;;;;;1.10;0.90;;;;;;;;;;5067806;28;20048;-61
2023/01/31 04:19:09;;;;;;;3.33;1.70;;;;;;;;;;5054656;28;20425;-61
2023/01/31 04:21:36;;;;;;;1.63;1.30;;;;;;;;;;5060933;28;20032;-61
2023/01/31 04:24:03;;;;;;;3.90;1.47;;;;;;;;;;5066204;28;20027;-58
2023/01/31 04:26:29;;;;;;;11.67;1.90;;;;;;;;;;5060616;28;20112;-58
2023/01/31 04:28:56;;;;;;;0.70;0.70;;;;;;;;;;5054689;28;20104;-59
2023/01/31 04:31:23;;;;;;;5.63;1.70;;;;;;;;;;5060273;28;20086;-61
2023/01/31 04:33:49;;;;;;;8.07;1.57;;;;;;;;;;5069208;28;20035;-61
2023/01/31 04:36:16;;;;;;;1.57;1.17;;;;;;;;;;5069223;28;20021;-61
2023/01/31 04:38:43;;;;;;;2.80;1.53;;;;;;;;;;5069092;28;20025;-61
2023/01/31 04:41:09;;;;;;;2.57;1.73;;;;;;;;;;5065678;28;20578;-61
2023/01/31 04:43:36;;;;;;;3.03;1.70;;;;;;;;;;5054648;28;20491;-61
2023/01/31 04:46:03;;;;;;;2.57;1.07;;;;;;;;;;5061654;28;20510;-61
2023/01/31 04:48:30;;;;;;;1.77;1.13;;;;;;;;;;5068042;28;20021;-61
2023/01/31 04:50:56;;;;;;;2.30;1.40;;;;;;;;;;5074442;28;20024;-61
2023/01/31 04:53:23;;;;;;;4.00;1.53;;;;;;;;;;5064240;28;20029;-61
2023/01/31 04:55:53;;;;;;;3.23;1.33;;;;;;;;;;5057035;28;20033;-61
2023/01/31 04:58:20;;;;;;;2.83;1.50;;;;;;;;;;5048557;28;20029;-61
2023/01/31 05:00:47;;;;;;;4.40;2.77;;;;;;;;;;5054567;28;20069;-58
2023/01/31 05:03:14;;;;;;;2.97;1.97;;;;;;;;;;5052951;28;20032;-58
2023/01/31 05:05:44;;;;;;;4.27;2.23;;;;;;;;;;5053925;28;20472;-58
2023/01/31 05:08:10;;;;;;;1.40;1.10;;;;;;;;;;5056757;28;20045;-58
2023/01/31 05:10:37;;;;;;;3.27;2.27;;;;;;;;;;5074061;28;20506;-58
2023/01/31 05:13:04;;;;;;;2.40;1.63;;;;;;;;;;5073809;28;20039;-58
2023/01/31 05:15:31;;;;;;;3.43;1.93;;;;;;;;;;5071919;28;20071;-61
2023/01/31 05:18:02;;;;;;;2.00;1.53;;;;;;;;;;5068263;28;20032;-61
2023/01/31 05:20:35;;;;;;;3.07;1.53;;;;;;;;;;5047934;28;20389;-61
2023/01/31 05:23:02;;;;;;;4.30;2.33;;;;;;;;;;5048033;28;20037;-61
2023/01/31 05:25:29;;;;;;;2.03;1.43;;;;;;;;;;5049769;28;20479;-61
2023/01/31 05:27:57;;;;;;;1.93;1.30;;;;;;;;;;5053629;28;20058;-60
2023/01/31 05:30:24;;;;;;;4.33;1.63;;;;;;;;;;5053465;28;20025;-60
2023/01/31 05:32:51;;;;;;;1.90;1.33;;;;;;;;;;5053684;28;20539;-61
2023/01/31 05:35:18;;;;;;;2.33;1.53;;;;;;;;;;5053031;28;20107;-61
2023/01/31 05:37:45;;;;;;;3.27;1.67;;;;;;;;;;5051683;28;20029;-60
2023/01/31 05:40:13;;;;;;;2.60;1.40;;;;;;;;;;5047933;28;20487;-58
2023/01/31 05:42:40;;;;;;;2.57;1.77;;;;;;;;;;5051523;28;20025;-58
2023/01/31 05:45:07;;;;;;;2.53;2.00;;;;;;;;;;5055322;28;20487;-58
2023/01/31 05:47:34;;;;;;;2.23;1.40;;;;;;;;;;5052604;28;20040;-58
2023/01/31 05:50:01;;;;;;;2.10;1.47;;;;;;;;;;5053346;28;20036;-58
2023/01/31 05:52:27;;;;;;;1.50;1.10;;;;;;;;;;5058171;28;20027;-58
2023/01/31 05:54:54;;;;;;;15.13;2.70;;;;;;;;;;5073192;28;20025;-58
2023/01/31 05:57:21;;;;;;;2.47;1.20;;;;;;;;;;5067106;28;20017;-60
2023/01/31 05:59:48;;;;;;;1.83;1.20;;;;;;;;;;5060935;28;20081;-60
2023/01/31 06:02:15;;;;;;;3.80;2.07;;;;;;;;;;5054036;28;20033;-60
2023/01/31 06:04:41;;;;;;;3.50;1.73;;;;;;;;;;5047494;28;20086;-58
2023/01/31 06:07:08;;;;;;;1.37;0.90;;;;;;;;;;5048828;28;20115;-58
2023/01/31 06:09:37;;;;;;;5.77;1.93;;;;;;;;;;5046951;28;20025;-58
2023/01/31 06:12:04;;;;;;;1.63;1.07;;;;;;;;;;5052903;28;20040;-58
2023/01/31 06:14:32;;;;;;;1.17;0.70;;;;;;;;;;5053206;28;20095;-58
2023/01/31 06:16:58;;;;;;;0.93;0.87;;;;;;;;;;5052509;28;20053;-58
2023/01/31 06:19:25;;;;;;;3.73;1.87;;;;;;;;;;5059920;28;20017;-58
2023/01/31 06:21:52;;;;;;;2.83;2.07;;;;;;;;;;5052420;28;20017;-58
2023/01/31 06:24:18;;;;;;;3.17;2.10;;;;;;;;;;5047238;28;20028;-58
2023/01/31 06:26:45;;;;;;;2.00;1.57;;;;;;;;;;5047057;28;20506;-58
2023/01/31 06:29:12;;;;;;;4.90;2.37;;;;;;;;;;5047058;28;20123;-59
2023/01/31 06:31:39;;;;;;;1.57;1.27;;;;;;;;;;5047040;28;20043;-58
2023/01/31 06:34:05;;;;;;;1.93;1.40;;;;;;;;;;5052273;28;20508;-58
2023/01/31 06:36:32;;;;;;;1.30;1.13;;;;;;;;;;5052593;28;20032;-58
2023/01/31 06:38:59;;;;;;;2.60;1.60;;;;;;;;;;5052322;28;20070;-58
2023/01/31 06:41:26;;;;;;;2.00;1.17;;;;;;;;;;5059824;28;20502;-59
2023/01/31 06:43:53;;;;;;;1.63;1.33;;;;;;;;;;5072472;28;20025;-58
2023/01/31 06:46:19;;;;;;;2.53;1.50;;;;;;;;;;5066828;28;20450;-59
2023/01/31 06:48:49;;;;;;;4.93;3.53;;;;;;;;;;5066839;28;20467;-58
2023/01/31 06:51:16;;;;;;;2.93;1.83;;;;;;;;;;5066802;28;20044;-58
2023/01/31 06:53:52;;;;;;;3.43;2.30;;;;;;;;;;5066409;28;20067;-59
2023/01/31 06:56:19;;;;;;;3.90;2.80;;;;;;;;;;5071313;28;20407;-58
2023/01/31 06:58:46;;;;;;;3.33;1.80;;;;;;;;;;5072107;28;20479;-58
2023/01/31 07:01:13;;;;;;;3.13;2.43;;;;;;;;;;5072129;28;20036;-58
2023/01/31 07:03:40;;;;;;;2.90;1.70;;;;;;;;;;5072253;28;20479;-57
2023/01/31 07:06:07;;;;;;;3.50;2.13;;;;;;;;;;5060198;28;20052;-58
2023/01/31 07:08:34;;;;;;;9.17;4.63;;;;;;;;;;5046652;28;20083;-58
2023/01/31 07:11:01;;;;;;;5.87;3.73;;;;;;;;;;5045999;28;20043;-58
2023/01/31 07:13:28;;;;;;;7.73;3.90;;;;;;;;;;5046073;28;20419;-58
2023/01/31 07:15:58;;;;;;;5.17;3.57;;;;;;;;;;5046822;28;20384;-58
2023/01/31 07:18:25;;;;;;;6.40;2.67;;;;;;;;;;5050947;28;20047;-58
2023/01/31 07:20:51;;;;;;;3.83;1.93;;;;;;;;;;5051986;28;20029;-58
2023/01/31 07:23:18;;;;;;;4.07;2.70;;;;;;;;;;5052052;28;20503;-57
2023/01/31 07:25:45;;;;;;;5.37;3.53;;;;;;;;;;5051752;28;20035;-58
2023/01/31 07:28:11;;;;;;;2.57;1.87;;;;;;;;;;5051582;28;20041;-58
2023/01/31 07:30:38;;;;;;;4.17;2.47;;;;;;;;;;5059974;28;20037;-58
2023/01/31 07:33:05;;;;;;;5.03;3.60;;;;;;;;;;5066381;28;20569;-58
2023/01/31 07:35:32;;;;;;;11.10;2.90;;;;;;;;;;5066337;28;20039;-57
2023/01/31 07:37:58;;;;;;;4.83;2.50;;;;;;;;;;5066308;28;20033;-58
2023/01/31 07:40:25;;;;;;;2.87;2.03;;;;;;;;;;5070391;28;20032;-58
2023/01/31 07:42:57;;;;;;;3.37;2.20;;;;;;;;;;5071297;28;20434;-57
2023/01/31 07:45:23;;;;;;;2.60;2.10;;;;;;;;;;5071127;28;20024;-57
2023/01/31 07:47:51;;;;;;;2.47;1.57;;;;;;;;;;5071664;28;20094;-58
2023/01/31 07:50:18;;;;;;;1.90;1.50;;;;;;;;;;5071784;28;20036;-58
2023/01/31 07:52:44;;;;;;;1.83;1.40;;;;;;;;;;5067309;28;20076;-58
2023/01/31 07:55:11;;;;;;;1.93;1.53;;;;;;;;;;5047329;28;20120;-58
2023/01/31 07:57:38;;;;;;;4.13;2.70;;;;;;;;;;5046320;28;20032;-58
2023/01/31 08:03:31;;;;;;;4.63;2.60;;;;;;;;;;5046108;28;20444;-58
2023/01/31 08:05:37;;;;;;;3.40;2.28;;;;;;;;;;5051753;28;20048;-57
2023/01/31 08:08:09;;;;;;;1.90;1.50;;;;;;;;;;5051463;28;20031;-57
2023/01/31 08:10:36;;;;;;;1.77;1.30;;;;;;;;;;5051531;28;20087;-59
2023/01/31 08:13:03;;;;;;;2.67;1.70;;;;;;;;;;5064733;28;20047;-57
2023/01/31 08:15:30;;;;;;;4.43;2.50;;;;;;;;;;5065912;28;20079;-58
2023/01/31 08:17:56;;;;;;;4.40;1.67;;;;;;;;;;5066146;28;20036;-57
2023/01/31 08:20:23;;;;;;;1.83;1.33;;;;;;;;;;5065932;28;20043;-57
2023/01/31 08:22:50;;;;;;;1.73;1.43;;;;;;;;;;5068201;28;20107;-57
2023/01/31 08:25:16;;;;;;;1.17;0.97;;;;;;;;;;5073265;28;20483;-58
2023/01/31 08:27:43;;;;;;;2.87;1.10;;;;;;;;;;5074814;28;20040;-58
2023/01/31 08:30:10;;;;;;;2.50;1.83;;;;;;;;;;5074944;28;20036;-57
2023/01/31 08:32:37;;;;;;;1.97;1.47;;;;;;;;;;5074773;28;20058;-58
2023/01/31 08:35:04;;;;;;;3.83;1.40;;;;;;;;;;5074722;28;20024;-57
2023/01/31 08:37:31;;;;;;;3.00;2.13;;;;;;;;;;5052783;28;20032;-58
2023/01/31 08:39:58;;;;;;;3.73;2.17;;;;;;;;;;5049278;28;20040;-58
2023/01/31 08:42:25;;;;;;;2.70;1.97;;;;;;;;;;5048902;28;20048;-58
2023/01/31 08:44:51;;;;;;;2.13;1.67;;;;;;;;;;5049112;28;20029;-59
2023/01/31 08:47:18;;;;;;;4.00;1.67;;;;;;;;;;5053183;28;20041;-58
2023/01/31 08:49:45;;;;;;;2.20;1.80;;;;;;;;;;5054346;28;20059;-58
2023/01/31 08:52:11;;;;;;;2.30;1.57;;;;;;;;;;5054449;28;20424;-58
2023/01/31 08:54:38;;;;;;;2.10;1.67;;;;;;;;;;5054160;28;20553;-58
2023/01/31 08:57:05;;;;;;;4.33;1.77;;;;;;;;;;5054301;28;21270;-59
2023/01/31 08:59:32;;;;;;;2.07;1.57;;;;;;;;;;5050426;28;21300;-59
2023/01/31 09:01:58;;;;;;;3.20;2.20;;;;;;;;;;5068863;28;20059;-58
2023/01/31 09:04:25;;;;;;;2.20;1.57;;;;;;;;;;5068917;28;20474;-58
2023/01/31 09:06:53;;;;;;;6.03;1.93;;;;;;;;;;5068663;28;20140;-58
2023/01/31 09:09:20;;;;;;;2.17;1.50;;;;;;;;;;5072131;28;20040;-58
2023/01/31 09:11:46;;;;;;;1.47;1.20;;;;;;;;;;5073525;28;20674;-58
2023/01/31 09:14:13;;;;;;;4.67;1.70;;;;;;;;;;5057659;28;20083;-58
2023/01/31 09:16:40;;;;;;;1.57;1.20;;;;;;;;;;5054007;28;20112;-58
2023/01/31 09:19:07;;;;;;;3.40;2.10;;;;;;;;;;5053924;28;20029;-58
2023/01/31 09:21:33;;;;;;;1.33;1.03;;;;;;;;;;5050361;28;20268;-58
2023/01/31 09:24:04;;;;;;;1.47;1.07;;;;;;;;;;5061200;28;20127;-58
2023/01/31 09:26:31;;;;;;;2.63;1.43;;;;;;;;;;5068187;28;20390;-58
2023/01/31 09:29:00;;;;;;;2.70;1.90;;;;;;;;;;5068195;28;20033;-58
2023/01/31 09:31:26;;;;;;;2.27;1.67;;;;;;;;;;5070925;28;20490;-58
2023/01/31 09:33:54;;;;;;;2.87;1.90;;;;;;;;;;5073180;28;20116;-58
2023/01/31 09:36:23;;;;;;;0.80;0.77;;;;;;;;;;5073050;28;20115;-58
2023/01/31 09:38:54;;;;;;;2.07;1.23;;;;;;;;;;5073419;28;20036;-58
2023/01/31 09:41:30;;;;;;;3.53;1.53;;;;;;;;;;5073300;28;20044;-58
2023/01/31 09:44:02;;;;;;;3.97;1.97;;;;;;;;;;5069242;28;20097;-58
2023/01/31 09:46:32;;;;;;;1.77;1.30;;;;;;;;;;5067735;28;20040;-58
2023/01/31 09:49:01;;;;;;;2.17;1.70;;;;;;;;;;5051011;28;20068;-58
2023/01/31 09:51:27;;;;;;;3.80;1.60;;;;;;;;;;5048072;28;20552;-58
2023/01/31 09:53:56;;;;;;;2.03;1.50;;;;;;;;;;5051271;28;20040;-58
2023/01/31 09:56:29;;;;;;;2.20;1.60;;;;;;;;;;5052644;28;20037;-58
2023/01/31 09:59:04;;;;;;;1.87;1.30;;;;;;;;;;5053399;28;20032;-58
2023/01/31 10:01:46;;;;;;;3.07;1.67;;;;;;;;;;5053383;28;20418;-58
2023/01/31 10:04:13;;;;;;;1.87;1.43;;;;;;;;;;5053004;28;20039;-58
2023/01/31 10:06:43;;;;;;;2.03;1.73;;;;;;;;;;5047424;28;20047;-58
2023/01/31 10:09:27;;;;;;;1.57;1.30;;;;;;;;;;5047687;28;20024;-58
2023/01/31 10:12:12;;;;;;;7.03;1.37;;;;;;;;;;5047486;28;20033;-58
2023/01/31 10:14:42;;;;;;;1.48;1.25;;;;;;;;;;5047046;28;20039;-58
2023/01/31 10:17:32;;;;;;;1.03;0.93;;;;;;;;;;5053086;28;20112;-58
2023/01/31 10:19:58;;;;;;;2.70;1.47;;;;;;;;;;5040028;28;20492;-58
2023/01/31 10:22:39;;;;;;;4.60;1.77;;;;;;;;;;5052765;28;20495;-58
2023/01/31 10:25:20;;;;;;;3.43;2.53;;;;;;;;;;5052626;28;20063;-58
2023/01/31 10:28:06;;;;;;;4.17;1.77;;;;;;;;;;5050282;28;20056;-58
2023/01/31 10:30:41;;;;;;;2.43;1.93;;;;;;;;;;5046759;28;20119;-58
2023/01/31 10:33:22;;;;;;;1.65;1.38;;;;;;;;;;5050152;28;20036;-58
2023/01/31 10:35:50;;;;;;;2.27;1.77;;;;;;;;;;5066757;28;20483;-58
2023/01/31 10:38:26;;;;;;;3.67;2.00;;;;;;;;;;5069816;28;20254;-58
2023/01/31 10:41:13;;;;;;;4.57;2.13;;;;;;;;;;5072018;28;20344;-58
2023/01/31 10:43:49;;;;;;;1.07;0.97;;;;;;;;;;5072230;28;20305;-58
2023/01/31 10:46:16;;;;;;;2.80;1.37;;;;;;;;;;5070217;28;20033;-58
2023/01/31 10:48:45;;;;;;;3.23;2.07;;;;;;;;;;5052170;28;20468;-58
2023/01/31 10:51:17;;;;;;;2.90;2.40;;;;;;;;;;5047561;28;20335;-58
2023/01/31 10:53:47;;;;;;;6.70;1.80;;;;;;;;;;5046685;28;20274;-58
2023/01/31 10:56:23;;;;;;;2.80;2.03;;;;;;;;;;5058821;28;20280;-58
2023/01/31 10:58:50;;;;;;;1.87;1.33;;;;;;;;;;5049340;28;20274;-58
2023/01/31 11:01:17;;;;;;;2.03;1.17;;;;;;;;;;5051275;28;20755;-58
2023/01/31 11:03:54;;;;;;;2.33;1.83;;;;;;;;;;5051928;28;20290;-58
2023/01/31 11:06:21;;;;;;;1.20;1.03;;;;;;;;;;5052010;28;20270;-58
2023/01/31 11:08:48;;;;;;;0.93;0.83;;;;;;;;;;5052109;28;20262;-58
2023/01/31 11:11:16;;;;;;;2.27;1.53;;;;;;;;;;5051790;28;20270;-58
2023/01/31 11:13:55;;;;;;;6.43;2.17;;;;;;;;;;5046504;28;20327;-58
2023/01/31 11:16:23;;;;;;;1.40;1.20;;;;;;;;;;5046654;28;20253;-57
2023/01/31 11:18:51;;;;;;;0.80;0.70;;;;;;;;;;5064792;28;20269;-58
2023/01/31 11:21:26;;;;;;;1.77;1.37;;;;;;;;;;5066606;28;20578;-58
2023/01/31 11:23:55;;;;;;;2.13;1.30;;;;;;;;;;5071993;28;20250;-58
2023/01/31 11:26:32;;;;;;;1.80;1.27;;;;;;;;;;5071367;28;20391;-58
2023/01/31 11:28:59;;;;;;;1.33;0.90;;;;;;;;;;5069920;28;20284;-58
2023/01/31 11:31:38;;;;;;;1.50;1.20;;;;;;;;;;5051387;28;20361;-58
2023/01/31 11:34:17;;;;;;;1.97;1.20;;;;;;;;;;5050474;28;20787;-58
2023/01/31 11:36:45;;;;;;;1.70;1.30;;;;;;;;;;5046311;28;20276;-58
2023/01/31 11:39:31;;;;;;;3.17;1.73;;;;;;;;;;5046616;28;20274;-58
2023/01/31 11:42:18;;;;;;;3.43;2.10;;;;;;;;;;5047347;28;20905;-58
2023/01/31 11:44:57;;;;;;;2.00;1.60;;;;;;;;;;5051228;28;20274;-58
2023/01/31 11:47:38;;;;;;;4.73;2.40;;;;;;;;;;5051630;28;20286;-58
2023/01/31 11:50:05;;;;;;;3.40;2.47;;;;;;;;;;5051617;28;20269;-58
2023/01/31 11:52:33;;;;;;;2.50;2.07;;;;;;;;;;5051672;28;20258;-58
2023/01/31 11:55:03;;;;;;;3.53;2.50;;;;;;;;;;5051440;28;20269;-58
2023/01/31 11:57:36;;;;;;;1.60;1.30;;;;;;;;;;5051371;28;20262;-58
2023/01/31 12:00:06;;;;;;;2.00;1.53;;;;;;;;;;5050277;28;20324;-58
2023/01/31 12:02:36;;;;;;;1.57;1.20;;;;;;;;;;5058462;28;20629;-58
2023/01/31 12:05:13;;;;;;;0.97;0.87;;;;;;;;;;5069316;28;20277;-58
2023/01/31 12:07:44;;;;;;;2.03;1.57;;;;;;;;;;5073365;28;20297;-58
2023/01/31 12:10:29;;;;;;;1.97;1.33;;;;;;;;;;5057332;28;20282;-58
2023/01/31 12:13:00;;;;;;;2.78;2.05;;;;;;;;;;5055292;28;20255;-58
2023/01/31 12:15:28;;;;;;;2.73;1.80;;;;;;;;;;5055266;28;20035;-58
2023/01/31 12:17:55;;;;;;;1.13;0.97;;;;;;;;;;5054883;28;20756;-58
2023/01/31 12:20:48;;;;;;;5.00;1.93;;;;;;;;;;5061460;28;20265;-58
2023/01/31 12:23:15;;;;;;;1.20;0.93;;;;;;;;;;5049461;28;20262;-58
2023/01/31 12:25:47;;;;;;;2.37;1.63;;;;;;;;;;5049487;28;20278;-58
2023/01/31 12:28:20;;;;;;;4.80;1.80;;;;;;;;;;5049499;28;20289;-58
2023/01/31 12:31:01;;;;;;;3.67;2.07;;;;;;;;;;5054943;28;20266;-58
2023/01/31 12:33:27;;;;;;;3.63;2.20;;;;;;;;;;5054879;28;20757;-58
2023/01/31 12:36:17;;;;;;;3.43;2.30;;;;;;;;;;5054476;28;20347;-58
2023/01/31 12:39:13;;;;;;;2.83;2.07;;;;;;;;;;5046720;28;20270;-58
2023/01/31 12:41:41;;;;;;;2.47;1.65;;;;;;;;;;5051575;28;20285;-58
2023/01/31 12:44:22;;;;;;;2.50;1.33;;;;;;;;;;5066385;28;20041;-58
2023/01/31 12:46:49;;;;;;;6.57;2.50;;;;;;;;;;5068886;28;20769;-58
2023/01/31 12:49:25;;;;;;;5.30;2.00;;;;;;;;;;5069210;28;20258;-58
2023/01/31 12:51:58;;;;;;;1.93;1.33;;;;;;;;;;5072237;28;20255;-58
2023/01/31 12:54:37;;;;;;;1.63;1.40;;;;;;;;;;5073820;28;20288;-58
2023/01/31 12:57:18;;;;;;;9.23;1.27;;;;;;;;;;5074469;28;20258;-57
2023/01/31 13:00:04;;;;;;;9.70;2.63;;;;;;;;;;5073864;28;20257;-58
2023/01/31 13:02:32;;;;;;;1.50;1.10;;;;;;;;;;5062507;28;20273;-58
2023/01/31 13:05:12;;;;;;;2.60;1.80;;;;;;;;;;5047922;28;20048;-57
2023/01/31 13:07:38;;;;;;;2.03;1.60;;;;;;;;;;5047643;28;20377;-57
2023/01/31 13:10:07;;;;;;;1.67;1.37;;;;;;;;;;5048551;28;20319;-58
2023/01/31 13:12:35;;;;;;;6.20;1.77;;;;;;;;;;5048451;28;20666;-58
2023/01/31 13:15:16;;;;;;;22.50;1.93;;;;;;;;;;5054029;28;20262;-57
2023/01/31 13:17:43;;;;;;;4.77;2.77;;;;;;;;;;5064742;28;20851;-58
2023/01/31 13:20:22;;;;;;;3.40;1.87;;;;;;;;;;5073742;28;20360;-58
2023/01/31 13:22:59;;;;;;;2.87;1.87;;;;;;;;;;5073924;28;20362;-58
2023/01/31 13:25:28;;;;;;;4.43;2.13;;;;;;;;;;5072420;28;20261;-57
2023/01/31 13:28:00;;;;;;;5.63;1.97;;;;;;;;;;5056235;28;20329;-58
2023/01/31 13:30:38;;;;;;;2.17;1.73;;;;;;;;;;5049048;28;20266;-58
2023/01/31 13:33:18;;;;;;;3.80;1.40;;;;;;;;;;5050287;28;20262;-58
2023/01/31 13:35:45;;;;;;;5.77;1.90;;;;;;;;;;5049947;28;20265;-58
2023/01/31 13:38:14;;;;;;;2.90;1.97;;;;;;;;;;5053069;28;20269;-58
2023/01/31 13:40:48;;;;;;;2.33;1.33;;;;;;;;;;5052948;28;20266;-58
2023/01/31 13:43:16;;;;;;;2.17;1.53;;;;;;;;;;5058656;28;20273;-57
2023/01/31 13:45:47;;;;;;;19.60;2.70;;;;;;;;;;5073104;28;20763;-58
2023/01/31 13:48:22;;;;;;;14.03;2.30;;;;;;;;;;5070371;28;20289;-58
2023/01/31 13:51:01;;;;;;;6.13;3.33;;;;;;;;;;5067791;28;20751;-58
2023/01/31 13:53:35;;;;;;;12.63;2.57;;;;;;;;;;5067559;28;20273;-58
2023/01/31 13:56:03;;;;;;;17.92;2.88;;;;;;;;;;5056631;28;20278;-58
2023/01/31 13:58:34;;;;;;;8.70;2.67;;;;;;;;;;5050403;28;20098;-58
2023/01/31 14:01:06;;;;;;;12.03;2.47;;;;;;;;;;5053201;28;20258;-58
2023/01/31 14:03:52;;;;;;;12.57;2.77;;;;;;;;;;5052720;28;20262;-58
2023/01/31 14:06:19;;;;;;;11.37;2.97;;;;;;;;;;5052244;28;20640;-58
2023/01/31 14:08:49;;;;;;;7.23;3.17;;;;;;;;;;5068893;28;20277;-58
2023/01/31 14:11:15;;;;;;;18.73;2.30;;;;;;;;;;5068451;28;20487;-58
2023/01/31 14:13:46;;;;;;;18.73;3.03;;;;;;;;;;5067058;28;20483;-58
2023/01/31 14:16:31;;;;;;;23.03;3.13;;;;;;;;;;5067067;28;20109;-58
2023/01/31 14:18:58;;;;;;;6.78;1.77;;;;;;;;;;5066569;28;20483;-59
2023/01/31 14:21:31;;;;;;;5.47;2.60;;;;;;;;;;5051767;28;20029;-58
2023/01/31 14:23:59;;;;;;;3.03;1.60;;;;;;;;;;5052480;28;20029;-59
2023/01/31 14:26:34;;;;;;;12.87;1.27;;;;;;;;;;5052644;28;20103;-58
2023/01/31 14:29:07;;;;;;;1.27;0.97;;;;;;;;;;5052541;28;20047;-58
2023/01/31 14:31:34;;;;;;;1.93;1.20;;;;;;;;;;5059506;28;20029;-58
2023/01/31 14:34:02;;;;;;;3.37;2.07;;;;;;;;;;5066999;28;20036;-58
2023/01/31 14:36:31;;;;;;;1.93;1.20;;;;;;;;;;5056221;28;20055;-59
2023/01/31 14:39:04;;;;;;;1.90;1.50;;;;;;;;;;5063960;28;20101;-58
2023/01/31 14:41:49;;;;;;;7.03;2.60;;;;;;;;;;5067048;28;20037;-59
2023/01/31 14:44:16;;;;;;;2.85;1.98;;;;;;;;;;5072128;28;20062;-59
2023/01/31 14:46:52;;;;;;;4.03;2.80;;;;;;;;;;5060818;28;20037;-59
2023/01/31 14:49:27;;;;;;;5.03;3.03;;;;;;;;;;5052494;28;20450;-58
2023/01/31 14:51:53;;;;;;;;;;;;;;;;;;5052658;28;20462;-59
2023/01/31 14:54:22;;;;;;;5.27;3.53;;;;;;;;;;5050669;28;20318;-58
2023/01/31 14:56:49;;;;;;;10.47;3.33;;;;;;;;;;5046438;28;20041;-58
2023/01/31 14:59:38;;;;;;;7.50;3.80;;;;;;;;;;5060990;28;20384;-59
2023/01/31 15:02:23;;;;;;;5.33;3.40;;;;;;;;;;5065090;28;20052;-59
2023/01/31 15:05:16;;;;;;;5.20;3.17;;;;;;;;;;5068478;28;20024;-58
2023/01/31 15:08:03;;;;;;;7.47;2.40;;;;;;;;;;5034222;28;20052;-59
2023/01/31 15:10:48;;;;;;;3.00;2.53;;;;;;;;;;5069232;28;20043;-59